Main page
Satellite images 15-day forecastsClimateMarine weather Cyclones Lightning AirportsFAQ Newsletter About
Weather : Europe Africa North America South America Asia Australia-Oceania Others
Languages Contact

Mangalore, India

Bajpe

latitude: 12-55N, longitude: 074-53E, elevation: 102 m


METAR: out of date (37215 hours)
short-TAF: VOML 250000Z 2503/2512 09005KT 6000 SCT015 BECMG 2506/2507 27010KT TEMPO 2509/2512 5000 TSRA/RA FEW015 FEW025CB BKN080
long-TAF: VOML 241500Z 2418/2524 09005KT 6000 SCT015 TEMPO 2500/2503 3000 BR BECMG 2506/2507 27010KT TEMPO 2509/2515 5000 TSRA/RA FEW015 FEW025CB BKN080 BECMG 2518/2519 09005KT

Time: 06:23 (00:53 UTC)

Forecast

The report was made 18 minutes ago, at 00:35 UTC  
Forecast valid from 25 at 03 UTC to 25 at 12 UTC
Wind 05 kt from east
Visibility 6000 m
Scattered clouds at a height of 1500 ft
Becoming
from 25 at 06 UTC to 25 at 07 UTC
Wind 10 kt from west
Temporary
from 25 at 09 UTC to 25 at 12 UTC
Visibility 5000 m
Few clouds at a height of 1500 ft
Few clouds at a height of 2500 ft , Cumulonimbus.
Broken clouds at a height of 8000 ft

Forecast

The report was made 10 hours and 4 minutes ago, at 14:49 UTC  
Forecast valid from 24 at 18 UTC to 25 at 24 UTC
Wind 05 kt from east
Visibility 6000 m
Scattered clouds at a height of 1500 ft
Temporary
from 25 at 00 UTC to 25 at 03 UTC
Visibility 3000 m
mist
Becoming
from 25 at 06 UTC to 25 at 07 UTC
Wind 10 kt from west
Temporary
from 25 at 09 UTC to 25 at 15 UTC
Visibility 5000 m
Few clouds at a height of 1500 ft
Few clouds at a height of 2500 ft , Cumulonimbus.
Broken clouds at a height of 8000 ft
Becoming
from 25 at 18 UTC to 25 at 19 UTC
Wind 05 kt from east
The information on this site is subject to a disclaimer
Weather : Europe Africa North America South America Asia Australia-Oceania Others
Satellite images 15-day forecastsClimateMarine weather Cyclones Lightning AirportsFAQ Languages Contact Newsletter About